Terminal Aerodrome Forecast
Issued by NWS

Home | Current Version | Previous Version | Text Only | Print | Product List | Glossary On
Versions: 1 2 3 4 5 6 7 8 9 10 11 12 13 14 15 16 17 18 19 20 21 22 23 24
000
FTUS46 KMTR 030300 AAB
TAFSFO
TAF AMD
KSFO 030319Z 0303/0406 28017KT P6SM FEW008
     FM030400 29012KT P6SM SCT010
      TEMPO 0304/0306 BKN010
     FM030600 28006KT P6SM -DZ OVC010
     FM031800 28008KT P6SM FEW010
     FM032100 29017KT P6SM FEW010
     FM040400 29011KT P6SM SCT010=

USA.gov is the U.S. government's official web portal to all federal, state and local government web resources and services.